sensor_id;sensor_type;location;lat;lon;timestamp;pressure;altitude;pressure_sealevel;temperature
17142;BMP180;32805;53.556;9.944;2022-09-29T00:01:00;99727.00;;;8.90
17142;BMP180;32805;53.556;9.944;2022-09-29T00:03:29;99717.00;;;8.90
17142;BMP180;32805;53.556;9.944;2022-09-29T00:05:57;99733.00;;;9.10
17142;BMP180;32805;53.556;9.944;2022-09-29T00:08:27;99722.00;;;9.20
17142;BMP180;32805;53.556;9.944;2022-09-29T00:10:55;99733.00;;;9.10
17142;BMP180;32805;53.556;9.944;2022-09-29T00:13:22;99737.00;;;9.10
17142;BMP180;32805;53.556;9.944;2022-09-29T00:15:54;99724.00;;;9.10
17142;BMP180;32805;53.556;9.944;2022-09-29T00:18:22;99718.00;;;9.00
17142;BMP180;32805;53.556;9.944;2022-09-29T00:20:59;99722.00;;;8.90
17142;BMP180;32805;53.556;9.944;2022-09-29T00:23:28;99729.00;;;8.80
17142;BMP180;32805;53.556;9.944;2022-09-29T00:26:05;99722.00;;;8.80
17142;BMP180;32805;53.556;9.944;2022-09-29T00:28:34;99735.00;;;9.00
17142;BMP180;32805;53.556;9.944;2022-09-29T00:31:03;99724.00;;;8.80
17142;BMP180;32805;53.556;9.944;2022-09-29T00:33:33;99714.00;;;8.90
17142;BMP180;32805;53.556;9.944;2022-09-29T00:36:04;99719.00;;;8.90
17142;BMP180;32805;53.556;9.944;2022-09-29T00:38:33;99725.00;;;8.90
17142;BMP180;32805;53.556;9.944;2022-09-29T00:41:02;99729.00;;;8.80
17142;BMP180;32805;53.556;9.944;2022-09-29T00:43:50;99722.00;;;8.80
17142;BMP180;32805;53.556;9.944;2022-09-29T00:46:23;99718.00;;;8.90
17142;BMP180;32805;53.556;9.944;2022-09-29T00:48:52;99718.00;;;8.80
17142;BMP180;32805;53.556;9.944;2022-09-29T00:51:23;99720.00;;;8.90
17142;BMP180;32805;53.556;9.944;2022-09-29T00:53:51;99721.00;;;8.80
17142;BMP180;32805;53.556;9.944;2022-09-29T00:56:19;99725.00;;;9.00
17142;BMP180;32805;53.556;9.944;2022-09-29T00:58:49;99723.00;;;9.00
17142;BMP180;32805;53.556;9.944;2022-09-29T01:01:20;99723.00;;;8.90
17142;BMP180;32805;53.556;9.944;2022-09-29T01:03:51;99727.00;;;8.90
17142;BMP180;32805;53.556;9.944;2022-09-29T01:06:24;99726.00;;;8.90
17142;BMP180;32805;53.556;9.944;2022-09-29T01:08:58;99724.00;;;8.90
17142;BMP180;32805;53.556;9.944;2022-09-29T01:11:28;99724.00;;;9.00
17142;BMP180;32805;53.556;9.944;2022-09-29T01:13:57;99726.00;;;9.00
17142;BMP180;32805;53.556;9.944;2022-09-29T01:16:29;99724.00;;;9.20
17142;BMP180;32805;53.556;9.944;2022-09-29T01:18:58;99722.00;;;9.10
17142;BMP180;32805;53.556;9.944;2022-09-29T01:21:35;99713.00;;;9.10
17142;BMP180;32805;53.556;9.944;2022-09-29T01:24:29;99717.00;;;9.00
17142;BMP180;32805;53.556;9.944;2022-09-29T01:27:09;99721.00;;;9.10
17142;BMP180;32805;53.556;9.944;2022-09-29T01:29:55;99719.00;;;9.00
17142;BMP180;32805;53.556;9.944;2022-09-29T01:32:33;99699.00;;;9.10
17142;BMP180;32805;53.556;9.944;2022-09-29T01:35:07;99713.00;;;9.00
17142;BMP180;32805;53.556;9.944;2022-09-29T01:37:48;99712.00;;;9.00
17142;BMP180;32805;53.556;9.944;2022-09-29T01:40:25;99714.00;;;9.00
17142;BMP180;32805;53.556;9.944;2022-09-29T01:43:00;99721.00;;;8.90
17142;BMP180;32805;53.556;9.944;2022-09-29T01:45:32;99716.00;;;8.90
17142;BMP180;32805;53.556;9.944;2022-09-29T01:48:04;99712.00;;;8.90
17142;BMP180;32805;53.556;9.944;2022-09-29T01:50:37;99712.00;;;8.90
17142;BMP180;32805;53.556;9.944;2022-09-29T01:53:11;99716.00;;;9.00
17142;BMP180;32805;53.556;9.944;2022-09-29T01:55:43;99727.00;;;8.90
17142;BMP180;32805;53.556;9.944;2022-09-29T01:58:16;99721.00;;;8.80
17142;BMP180;32805;53.556;9.944;2022-09-29T02:00:48;99718.00;;;8.70
17142;BMP180;32805;53.556;9.944;2022-09-29T02:03:23;99716.00;;;8.90
17142;BMP180;32805;53.556;9.944;2022-09-29T02:05:54;99719.00;;;8.80
17142;BMP180;32805;53.556;9.944;2022-09-29T02:08:26;99705.00;;;8.90
17142;BMP180;32805;53.556;9.944;2022-09-29T02:11:01;99709.00;;;8.90
17142;BMP180;32805;53.556;9.944;2022-09-29T02:13:31;99724.00;;;8.80
17142;BMP180;32805;53.556;9.944;2022-09-29T02:16:03;99721.00;;;8.80
17142;BMP180;32805;53.556;9.944;2022-09-29T02:18:36;99719.00;;;8.90
17142;BMP180;32805;53.556;9.944;2022-09-29T02:21:06;99722.00;;;8.80
17142;BMP180;32805;53.556;9.944;2022-09-29T02:23:35;99732.00;;;8.90
17142;BMP180;32805;53.556;9.944;2022-09-29T02:26:03;99722.00;;;8.80
17142;BMP180;32805;53.556;9.944;2022-09-29T02:28:31;99722.00;;;8.80
17142;BMP180;32805;53.556;9.944;2022-09-29T02:30:59;99727.00;;;8.80
17142;BMP180;32805;53.556;9.944;2022-09-29T02:33:27;99736.00;;;8.80
17142;BMP180;32805;53.556;9.944;2022-09-29T02:36:02;99730.00;;;8.70
17142;BMP180;32805;53.556;9.944;2022-09-29T02:38:40;99731.00;;;8.60
17142;BMP180;32805;53.556;9.944;2022-09-29T02:41:17;99731.00;;;8.60
17142;BMP180;32805;53.556;9.944;2022-09-29T02:44:14;99733.00;;;8.60
17142;BMP180;32805;53.556;9.944;2022-09-29T02:46:57;99728.00;;;8.60
17142;BMP180;32805;53.556;9.944;2022-09-29T02:49:44;99726.00;;;8.60
17142;BMP180;32805;53.556;9.944;2022-09-29T02:52:23;99736.00;;;8.60
17142;BMP180;32805;53.556;9.944;2022-09-29T02:55:00;99735.00;;;8.60
17142;BMP180;32805;53.556;9.944;2022-09-29T02:57:39;99724.00;;;8.70
17142;BMP180;32805;53.556;9.944;2022-09-29T03:00:13;99731.00;;;8.70
17142;BMP180;32805;53.556;9.944;2022-09-29T03:02:42;99724.00;;;8.40
17142;BMP180;32805;53.556;9.944;2022-09-29T03:05:12;99731.00;;;8.40
17142;BMP180;32805;53.556;9.944;2022-09-29T03:07:42;99728.00;;;8.50
17142;BMP180;32805;53.556;9.944;2022-09-29T03:10:12;99740.00;;;8.40
17142;BMP180;32805;53.556;9.944;2022-09-29T03:12:41;99738.00;;;8.50
17142;BMP180;32805;53.556;9.944;2022-09-29T03:15:09;99730.00;;;8.50
17142;BMP180;32805;53.556;9.944;2022-09-29T03:17:38;99736.00;;;8.30
17142;BMP180;32805;53.556;9.944;2022-09-29T03:20:07;99739.00;;;8.30
17142;BMP180;32805;53.556;9.944;2022-09-29T03:22:35;99739.00;;;8.50
17142;BMP180;32805;53.556;9.944;2022-09-29T03:25:04;99734.00;;;8.60
17142;BMP180;32805;53.556;9.944;2022-09-29T03:27:33;99721.00;;;8.70
17142;BMP180;32805;53.556;9.944;2022-09-29T03:30:02;99743.00;;;8.50
17142;BMP180;32805;53.556;9.944;2022-09-29T03:32:30;99739.00;;;8.50
17142;BMP180;32805;53.556;9.944;2022-09-29T03:34:58;99741.00;;;8.50
17142;BMP180;32805;53.556;9.944;2022-09-29T03:37:26;99744.00;;;8.50
17142;BMP180;32805;53.556;9.944;2022-09-29T03:39:53;99732.00;;;8.60
17142;BMP180;32805;53.556;9.944;2022-09-29T03:42:22;99738.00;;;8.50
17142;BMP180;32805;53.556;9.944;2022-09-29T03:44:50;99738.00;;;8.40
17142;BMP180;32805;53.556;9.944;2022-09-29T03:47:18;99742.00;;;8.50
17142;BMP180;32805;53.556;9.944;2022-09-29T03:49:46;99741.00;;;8.50
17142;BMP180;32805;53.556;9.944;2022-09-29T03:52:13;99750.00;;;8.60
17142;BMP180;32805;53.556;9.944;2022-09-29T03:54:41;99742.00;;;8.60
17142;BMP180;32805;53.556;9.944;2022-09-29T03:57:09;99744.00;;;8.50
17142;BMP180;32805;53.556;9.944;2022-09-29T03:59:39;99745.00;;;8.50
17142;BMP180;32805;53.556;9.944;2022-09-29T04:02:11;99741.00;;;8.50
17142;BMP180;32805;53.556;9.944;2022-09-29T04:04:39;99741.00;;;8.50
17142;BMP180;32805;53.556;9.944;2022-09-29T04:07:07;99747.00;;;8.50
17142;BMP180;32805;53.556;9.944;2022-09-29T04:09:34;99753.00;;;8.50
17142;BMP180;32805;53.556;9.944;2022-09-29T04:12:02;99750.00;;;8.60
17142;BMP180;32805;53.556;9.944;2022-09-29T04:14:30;99750.00;;;8.60
17142;BMP180;32805;53.556;9.944;2022-09-29T04:16:59;99750.00;;;8.60
17142;BMP180;32805;53.556;9.944;2022-09-29T04:19:26;99750.00;;;8.70
17142;BMP180;32805;53.556;9.944;2022-09-29T04:21:54;99755.00;;;8.70
17142;BMP180;32805;53.556;9.944;2022-09-29T04:24:21;99753.00;;;8.60
17142;BMP180;32805;53.556;9.944;2022-09-29T04:26:49;99763.00;;;8.50
17142;BMP180;32805;53.556;9.944;2022-09-29T04:29:16;99770.00;;;8.50
17142;BMP180;32805;53.556;9.944;2022-09-29T04:31:44;99766.00;;;8.50
17142;BMP180;32805;53.556;9.944;2022-09-29T04:34:13;99776.00;;;8.50
17142;BMP180;32805;53.556;9.944;2022-09-29T04:36:44;99782.00;;;8.60
17142;BMP180;32805;53.556;9.944;2022-09-29T04:39:12;99769.00;;;8.60
17142;BMP180;32805;53.556;9.944;2022-09-29T04:41:39;99778.00;;;8.60
17142;BMP180;32805;53.556;9.944;2022-09-29T04:44:07;99774.00;;;8.70
17142;BMP180;32805;53.556;9.944;2022-09-29T04:46:35;99778.00;;;8.60
17142;BMP180;32805;53.556;9.944;2022-09-29T04:49:02;99777.00;;;8.70
17142;BMP180;32805;53.556;9.944;2022-09-29T04:51:31;99772.00;;;8.80
17142;BMP180;32805;53.556;9.944;2022-09-29T04:53:59;99783.00;;;8.80
17142;BMP180;32805;53.556;9.944;2022-09-29T04:56:27;99793.00;;;8.70
17142;BMP180;32805;53.556;9.944;2022-09-29T04:58:57;99783.00;;;8.40
17142;BMP180;32805;53.556;9.944;2022-09-29T05:01:25;99786.00;;;8.30
17142;BMP180;32805;53.556;9.944;2022-09-29T05:03:52;99790.00;;;8.40
17142;BMP180;32805;53.556;9.944;2022-09-29T05:06:20;99786.00;;;8.40
17142;BMP180;32805;53.556;9.944;2022-09-29T05:08:49;99785.00;;;8.40
17142;BMP180;32805;53.556;9.944;2022-09-29T05:11:17;99787.00;;;8.40
17142;BMP180;32805;53.556;9.944;2022-09-29T05:13:47;99785.00;;;8.50
17142;BMP180;32805;53.556;9.944;2022-09-29T05:16:16;99788.00;;;8.30
17142;BMP180;32805;53.556;9.944;2022-09-29T05:18:43;99785.00;;;8.50
17142;BMP180;32805;53.556;9.944;2022-09-29T05:21:11;99779.00;;;8.40
17142;BMP180;32805;53.556;9.944;2022-09-29T05:23:55;99770.00;;;8.40
17142;BMP180;32805;53.556;9.944;2022-09-29T05:26:23;99790.00;;;8.30
17142;BMP180;32805;53.556;9.944;2022-09-29T05:28:50;99783.00;;;8.30
17142;BMP180;32805;53.556;9.944;2022-09-29T05:31:18;99790.00;;;8.40
17142;BMP180;32805;53.556;9.944;2022-09-29T05:33:46;99786.00;;;8.50
17142;BMP180;32805;53.556;9.944;2022-09-29T05:36:13;99791.00;;;8.50
17142;BMP180;32805;53.556;9.944;2022-09-29T05:38:41;99792.00;;;8.50
17142;BMP180;32805;53.556;9.944;2022-09-29T05:41:11;99793.00;;;8.60
17142;BMP180;32805;53.556;9.944;2022-09-29T05:43:39;99793.00;;;8.60
17142;BMP180;32805;53.556;9.944;2022-09-29T05:46:08;99807.00;;;8.80
17142;BMP180;32805;53.556;9.944;2022-09-29T05:48:37;99797.00;;;8.80
17142;BMP180;32805;53.556;9.944;2022-09-29T05:51:09;99788.00;;;8.80
17142;BMP180;32805;53.556;9.944;2022-09-29T05:53:37;99800.00;;;8.80
17142;BMP180;32805;53.556;9.944;2022-09-29T05:56:06;99799.00;;;8.70
17142;BMP180;32805;53.556;9.944;2022-09-29T05:58:36;99805.00;;;8.60
17142;BMP180;32805;53.556;9.944;2022-09-29T06:01:05;99799.00;;;8.60
17142;BMP180;32805;53.556;9.944;2022-09-29T06:03:33;99792.00;;;8.70
17142;BMP180;32805;53.556;9.944;2022-09-29T06:06:06;99794.00;;;8.70
17142;BMP180;32805;53.556;9.944;2022-09-29T06:08:34;99801.00;;;8.70
17142;BMP180;32805;53.556;9.944;2022-09-29T06:11:03;99796.00;;;8.60
17142;BMP180;32805;53.556;9.944;2022-09-29T06:13:31;99796.00;;;8.80
17142;BMP180;32805;53.556;9.944;2022-09-29T06:16:01;99788.00;;;9.00
17142;BMP180;32805;53.556;9.944;2022-09-29T06:18:29;99796.00;;;9.10
17142;BMP180;32805;53.556;9.944;2022-09-29T06:21:00;99796.00;;;9.30
17142;BMP180;32805;53.556;9.944;2022-09-29T06:23:27;99808.00;;;9.00
17142;BMP180;32805;53.556;9.944;2022-09-29T06:25:56;99805.00;;;8.80
17142;BMP180;32805;53.556;9.944;2022-09-29T06:28:24;99810.00;;;8.70
17142;BMP180;32805;53.556;9.944;2022-09-29T06:30:51;99801.00;;;8.70
17142;BMP180;32805;53.556;9.944;2022-09-29T06:33:20;99817.00;;;8.60
17142;BMP180;32805;53.556;9.944;2022-09-29T06:35:48;99822.00;;;8.60
17142;BMP180;32805;53.556;9.944;2022-09-29T06:38:34;99822.00;;;8.60
17142;BMP180;32805;53.556;9.944;2022-09-29T06:41:02;99821.00;;;8.60
17142;BMP180;32805;53.556;9.944;2022-09-29T06:43:30;99823.00;;;8.60
17142;BMP180;32805;53.556;9.944;2022-09-29T06:45:58;99812.00;;;8.90
17142;BMP180;32805;53.556;9.944;2022-09-29T06:48:27;99823.00;;;8.90
17142;BMP180;32805;53.556;9.944;2022-09-29T06:50:55;99811.00;;;8.90
17142;BMP180;32805;53.556;9.944;2022-09-29T06:53:35;99817.00;;;8.90
17142;BMP180;32805;53.556;9.944;2022-09-29T06:56:05;99820.00;;;8.80
17142;BMP180;32805;53.556;9.944;2022-09-29T06:58:34;99823.00;;;8.70
17142;BMP180;32805;53.556;9.944;2022-09-29T07:01:02;99823.00;;;8.70
17142;BMP180;32805;53.556;9.944;2022-09-29T07:03:33;99819.00;;;8.60
17142;BMP180;32805;53.556;9.944;2022-09-29T07:06:02;99821.00;;;8.40
17142;BMP180;32805;53.556;9.944;2022-09-29T07:08:46;99830.00;;;8.50
17142;BMP180;32805;53.556;9.944;2022-09-29T07:11:13;99833.00;;;8.70
17142;BMP180;32805;53.556;9.944;2022-09-29T07:13:41;99837.00;;;8.80
17142;BMP180;32805;53.556;9.944;2022-09-29T07:16:11;99830.00;;;8.80
17142;BMP180;32805;53.556;9.944;2022-09-29T07:18:41;99830.00;;;8.80
17142;BMP180;32805;53.556;9.944;2022-09-29T07:21:12;99840.00;;;8.50
17142;BMP180;32805;53.556;9.944;2022-09-29T07:23:43;99842.00;;;8.50
17142;BMP180;32805;53.556;9.944;2022-09-29T07:26:11;99842.00;;;8.60
17142;BMP180;32805;53.556;9.944;2022-09-29T07:28:39;99843.00;;;9.00
17142;BMP180;32805;53.556;9.944;2022-09-29T07:31:08;99838.00;;;8.90
17142;BMP180;32805;53.556;9.944;2022-09-29T07:33:42;99844.00;;;9.00
17142;BMP180;32805;53.556;9.944;2022-09-29T07:36:11;99844.00;;;8.80
17142;BMP180;32805;53.556;9.944;2022-09-29T07:38:39;99844.00;;;8.90
17142;BMP180;32805;53.556;9.944;2022-09-29T07:41:09;99850.00;;;9.10
17142;BMP180;32805;53.556;9.944;2022-09-29T07:43:37;99854.00;;;9.20
17142;BMP180;32805;53.556;9.944;2022-09-29T07:46:05;99848.00;;;9.10
17142;BMP180;32805;53.556;9.944;2022-09-29T07:48:34;99858.00;;;9.10
17142;BMP180;32805;53.556;9.944;2022-09-29T07:51:05;99865.00;;;9.00
17142;BMP180;32805;53.556;9.944;2022-09-29T07:53:33;99849.00;;;9.20
17142;BMP180;32805;53.556;9.944;2022-09-29T07:56:02;99845.00;;;9.40
17142;BMP180;32805;53.556;9.944;2022-09-29T07:58:31;99849.00;;;9.70
17142;BMP180;32805;53.556;9.944;2022-09-29T08:00:59;99850.00;;;9.90
17142;BMP180;32805;53.556;9.944;2022-09-29T08:03:31;99850.00;;;10.10
17142;BMP180;32805;53.556;9.944;2022-09-29T08:05:59;99852.00;;;10.30
17142;BMP180;32805;53.556;9.944;2022-09-29T08:08:28;99839.00;;;10.30
17142;BMP180;32805;53.556;9.944;2022-09-29T08:11:03;99856.00;;;10.30
17142;BMP180;32805;53.556;9.944;2022-09-29T08:13:31;99859.00;;;10.30
17142;BMP180;32805;53.556;9.944;2022-09-29T08:16:01;99862.00;;;10.40
17142;BMP180;32805;53.556;9.944;2022-09-29T08:18:29;99861.00;;;10.40
17142;BMP180;32805;53.556;9.944;2022-09-29T08:20:58;99859.00;;;10.50
17142;BMP180;32805;53.556;9.944;2022-09-29T08:23:34;99871.00;;;10.90
17142;BMP180;32805;53.556;9.944;2022-09-29T08:26:03;99865.00;;;11.00
17142;BMP180;32805;53.556;9.944;2022-09-29T08:28:34;99866.00;;;11.00
17142;BMP180;32805;53.556;9.944;2022-09-29T08:31:02;99867.00;;;11.00
17142;BMP180;32805;53.556;9.944;2022-09-29T08:33:30;99863.00;;;10.70
17142;BMP180;32805;53.556;9.944;2022-09-29T08:35:59;99872.00;;;10.70
17142;BMP180;32805;53.556;9.944;2022-09-29T08:38:31;99883.00;;;10.70
17142;BMP180;32805;53.556;9.944;2022-09-29T08:41:03;99877.00;;;10.80
17142;BMP180;32805;53.556;9.944;2022-09-29T08:43:34;99882.00;;;10.50
17142;BMP180;32805;53.556;9.944;2022-09-29T08:46:07;99877.00;;;10.60
17142;BMP180;32805;53.556;9.944;2022-09-29T08:48:39;99889.00;;;10.50
17142;BMP180;32805;53.556;9.944;2022-09-29T08:51:27;99883.00;;;10.70
17142;BMP180;32805;53.556;9.944;2022-09-29T08:54:27;99892.00;;;10.50
17142;BMP180;32805;53.556;9.944;2022-09-29T08:57:05;99894.00;;;10.30
17142;BMP180;32805;53.556;9.944;2022-09-29T08:59:34;99896.00;;;10.30
17142;BMP180;32805;53.556;9.944;2022-09-29T09:02:34;99899.00;;;10.50
17142;BMP180;32805;53.556;9.944;2022-09-29T09:05:15;99892.00;;;10.70
17142;BMP180;32805;53.556;9.944;2022-09-29T09:07:51;99897.00;;;10.90
17142;BMP180;32805;53.556;9.944;2022-09-29T09:10:33;99892.00;;;10.80
17142;BMP180;32805;53.556;9.944;2022-09-29T09:13:13;99867.00;;;10.90
17142;BMP180;32805;53.556;9.944;2022-09-29T09:16:13;99898.00;;;11.00
17142;BMP180;32805;53.556;9.944;2022-09-29T09:19:09;99905.00;;;11.10
17142;BMP180;32805;53.556;9.944;2022-09-29T09:21:41;99906.00;;;11.40
17142;BMP180;32805;53.556;9.944;2022-09-29T09:24:15;99899.00;;;11.30
17142;BMP180;32805;53.556;9.944;2022-09-29T09:26:51;99893.00;;;11.30
17142;BMP180;32805;53.556;9.944;2022-09-29T09:29:24;99904.00;;;11.20
17142;BMP180;32805;53.556;9.944;2022-09-29T09:32:01;99901.00;;;11.10
17142;BMP180;32805;53.556;9.944;2022-09-29T09:34:34;99912.00;;;11.30
17142;BMP180;32805;53.556;9.944;2022-09-29T09:37:13;99907.00;;;11.10
17142;BMP180;32805;53.556;9.944;2022-09-29T09:39:46;99911.00;;;11.40
17142;BMP180;32805;53.556;9.944;2022-09-29T09:42:20;99914.00;;;11.50
17142;BMP180;32805;53.556;9.944;2022-09-29T09:44:51;99907.00;;;11.80
17142;BMP180;32805;53.556;9.944;2022-09-29T09:47:24;99915.00;;;11.70
17142;BMP180;32805;53.556;9.944;2022-09-29T09:49:55;99903.00;;;11.70
17142;BMP180;32805;53.556;9.944;2022-09-29T09:52:30;99908.00;;;11.60
17142;BMP180;32805;53.556;9.944;2022-09-29T09:55:04;99906.00;;;11.80
17142;BMP180;32805;53.556;9.944;2022-09-29T09:57:47;99912.00;;;12.20
17142;BMP180;32805;53.556;9.944;2022-09-29T10:00:21;99911.00;;;12.10
17142;BMP180;32805;53.556;9.944;2022-09-29T10:02:51;99916.00;;;12.00
17142;BMP180;32805;53.556;9.944;2022-09-29T10:05:21;99921.00;;;12.00
17142;BMP180;32805;53.556;9.944;2022-09-29T10:07:52;99920.00;;;12.10
17142;BMP180;32805;53.556;9.944;2022-09-29T10:10:21;99920.00;;;12.00
17142;BMP180;32805;53.556;9.944;2022-09-29T10:12:56;99925.00;;;11.80
17142;BMP180;32805;53.556;9.944;2022-09-29T10:15:28;99935.00;;;11.60
17142;BMP180;32805;53.556;9.944;2022-09-29T10:18:03;99928.00;;;11.50
17142;BMP180;32805;53.556;9.944;2022-09-29T10:20:35;99927.00;;;11.50
17142;BMP180;32805;53.556;9.944;2022-09-29T10:23:18;99934.00;;;11.70
17142;BMP180;32805;53.556;9.944;2022-09-29T10:26:03;99926.00;;;11.80
17142;BMP180;32805;53.556;9.944;2022-09-29T10:28:43;99927.00;;;11.80
17142;BMP180;32805;53.556;9.944;2022-09-29T10:31:21;99929.00;;;11.80
17142;BMP180;32805;53.556;9.944;2022-09-29T10:33:53;99933.00;;;11.90
17142;BMP180;32805;53.556;9.944;2022-09-29T10:36:23;99935.00;;;12.00
17142;BMP180;32805;53.556;9.944;2022-09-29T10:38:52;99928.00;;;12.20
17142;BMP180;32805;53.556;9.944;2022-09-29T10:41:19;99934.00;;;12.10
17142;BMP180;32805;53.556;9.944;2022-09-29T10:43:48;99942.00;;;12.20
17142;BMP180;32805;53.556;9.944;2022-09-29T10:46:47;99941.00;;;11.80
17142;BMP180;32805;53.556;9.944;2022-09-29T10:49:16;99944.00;;;12.00
17142;BMP180;32805;53.556;9.944;2022-09-29T10:51:53;99937.00;;;12.30
17142;BMP180;32805;53.556;9.944;2022-09-29T10:54:23;99941.00;;;12.60
17142;BMP180;32805;53.556;9.944;2022-09-29T10:56:53;99943.00;;;12.30
17142;BMP180;32805;53.556;9.944;2022-09-29T10:59:24;99942.00;;;12.20
17142;BMP180;32805;53.556;9.944;2022-09-29T11:01:55;99946.00;;;12.20
17142;BMP180;32805;53.556;9.944;2022-09-29T11:04:27;99950.00;;;12.20
17142;BMP180;32805;53.556;9.944;2022-09-29T11:06:56;99948.00;;;12.30
17142;BMP180;32805;53.556;9.944;2022-09-29T11:09:37;99965.00;;;12.30
17142;BMP180;32805;53.556;9.944;2022-09-29T11:12:25;99957.00;;;12.30
17142;BMP180;32805;53.556;9.944;2022-09-29T11:14:55;99966.00;;;12.30
17142;BMP180;32805;53.556;9.944;2022-09-29T11:17:24;99951.00;;;12.30
17142;BMP180;32805;53.556;9.944;2022-09-29T11:19:54;99959.00;;;12.40
17142;BMP180;32805;53.556;9.944;2022-09-29T11:22:48;99966.00;;;12.10
17142;BMP180;32805;53.556;9.944;2022-09-29T11:25:23;99967.00;;;12.10
17142;BMP180;32805;53.556;9.944;2022-09-29T11:28:14;99963.00;;;12.10
17142;BMP180;32805;53.556;9.944;2022-09-29T11:30:57;99968.00;;;12.10
17142;BMP180;32805;53.556;9.944;2022-09-29T11:33:32;99969.00;;;12.10
17142;BMP180;32805;53.556;9.944;2022-09-29T11:36:08;99979.00;;;12.00
17142;BMP180;32805;53.556;9.944;2022-09-29T11:38:56;99975.00;;;12.10
17142;BMP180;32805;53.556;9.944;2022-09-29T11:41:43;99972.00;;;12.10
17142;BMP180;32805;53.556;9.944;2022-09-29T11:44:37;99985.00;;;12.10
17142;BMP180;32805;53.556;9.944;2022-09-29T11:47:16;99983.00;;;11.90
17142;BMP180;32805;53.556;9.944;2022-09-29T11:49:58;99989.00;;;12.00
17142;BMP180;32805;53.556;9.944;2022-09-29T11:52:41;99985.00;;;12.10
17142;BMP180;32805;53.556;9.944;2022-09-29T11:55:33;99989.00;;;12.10
17142;BMP180;32805;53.556;9.944;2022-09-29T11:58:18;99993.00;;;12.30
17142;BMP180;32805;53.556;9.944;2022-09-29T12:00:59;99991.00;;;12.40
17142;BMP180;32805;53.556;9.944;2022-09-29T12:03:40;100002.00;;;12.30
17142;BMP180;32805;53.556;9.944;2022-09-29T12:06:28;100003.00;;;12.40
17142;BMP180;32805;53.556;9.944;2022-09-29T12:09:10;99999.00;;;12.40
17142;BMP180;32805;53.556;9.944;2022-09-29T12:11:45;99990.00;;;12.50
17142;BMP180;32805;53.556;9.944;2022-09-29T12:14:56;99998.00;;;12.70
17142;BMP180;32805;53.556;9.944;2022-09-29T12:17:27;100007.00;;;12.50
17142;BMP180;32805;53.556;9.944;2022-09-29T12:20:02;100001.00;;;12.30
17142;BMP180;32805;53.556;9.944;2022-09-29T12:22:31;100003.00;;;12.30
17142;BMP180;32805;53.556;9.944;2022-09-29T12:25:04;99997.00;;;12.10
17142;BMP180;32805;53.556;9.944;2022-09-29T12:27:35;99999.00;;;12.00
17142;BMP180;32805;53.556;9.944;2022-09-29T12:30:13;100011.00;;;11.80
17142;BMP180;32805;53.556;9.944;2022-09-29T12:32:46;100008.00;;;11.80
17142;BMP180;32805;53.556;9.944;2022-09-29T12:35:23;100019.00;;;11.80
17142;BMP180;32805;53.556;9.944;2022-09-29T12:37:56;100017.00;;;11.80
17142;BMP180;32805;53.556;9.944;2022-09-29T12:40:31;100004.00;;;11.90
17142;BMP180;32805;53.556;9.944;2022-09-29T12:43:09;100013.00;;;12.00
17142;BMP180;32805;53.556;9.944;2022-09-29T12:45:43;100009.00;;;12.10
17142;BMP180;32805;53.556;9.944;2022-09-29T12:48:41;100010.00;;;12.20
17142;BMP180;32805;53.556;9.944;2022-09-29T12:51:16;100008.00;;;12.20
17142;BMP180;32805;53.556;9.944;2022-09-29T12:53:54;100007.00;;;12.20
17142;BMP180;32805;53.556;9.944;2022-09-29T12:56:28;100008.00;;;12.30
17142;BMP180;32805;53.556;9.944;2022-09-29T12:59:00;100010.00;;;12.30
17142;BMP180;32805;53.556;9.944;2022-09-29T13:01:31;100012.00;;;12.20
17142;BMP180;32805;53.556;9.944;2022-09-29T13:04:27;100015.00;;;12.30
17142;BMP180;32805;53.556;9.944;2022-09-29T13:07:14;100024.00;;;12.30
17142;BMP180;32805;53.556;9.944;2022-09-29T13:09:58;100019.00;;;12.30
17142;BMP180;32805;53.556;9.944;2022-09-29T13:12:43;100018.00;;;12.30
17142;BMP180;32805;53.556;9.944;2022-09-29T13:15:30;100021.00;;;12.30
17142;BMP180;32805;53.556;9.944;2022-09-29T13:18:23;100021.00;;;12.40
17142;BMP180;32805;53.556;9.944;2022-09-29T13:21:04;100022.00;;;12.40
17142;BMP180;32805;53.556;9.944;2022-09-29T13:23:57;100029.00;;;12.40
17142;BMP180;32805;53.556;9.944;2022-09-29T13:26:37;100028.00;;;12.40
17142;BMP180;32805;53.556;9.944;2022-09-29T13:29:25;100022.00;;;12.30
17142;BMP180;32805;53.556;9.944;2022-09-29T13:31:56;100027.00;;;12.30
17142;BMP180;32805;53.556;9.944;2022-09-29T13:34:28;100030.00;;;12.20
17142;BMP180;32805;53.556;9.944;2022-09-29T13:37:10;100032.00;;;11.90
17142;BMP180;32805;53.556;9.944;2022-09-29T13:39:42;100030.00;;;11.80
17142;BMP180;32805;53.556;9.944;2022-09-29T13:42:42;100035.00;;;11.60
17142;BMP180;32805;53.556;9.944;2022-09-29T13:45:39;100029.00;;;11.60
17142;BMP180;32805;53.556;9.944;2022-09-29T13:48:33;100039.00;;;11.60
17142;BMP180;32805;53.556;9.944;2022-09-29T13:54:23;100035.00;;;11.50
17142;BMP180;32805;53.556;9.944;2022-09-29T14:00:16;100040.00;;;11.40
17142;BMP180;32805;53.556;9.944;2022-09-29T14:02:47;100047.00;;;11.40
17142;BMP180;32805;53.556;9.944;2022-09-29T14:05:43;100042.00;;;11.50
17142;BMP180;32805;53.556;9.944;2022-09-29T14:08:19;100047.00;;;11.50
17142;BMP180;32805;53.556;9.944;2022-09-29T14:10:52;100035.00;;;11.20
17142;BMP180;32805;53.556;9.944;2022-09-29T14:13:25;100044.00;;;11.50
17142;BMP180;32805;53.556;9.944;2022-09-29T14:16:12;100051.00;;;11.60
17142;BMP180;32805;53.556;9.944;2022-09-29T14:18:45;100039.00;;;11.50
17142;BMP180;32805;53.556;9.944;2022-09-29T14:21:49;100041.00;;;11.50
17142;BMP180;32805;53.556;9.944;2022-09-29T14:24:45;100036.00;;;11.70
17142;BMP180;32805;53.556;9.944;2022-09-29T14:27:34;100042.00;;;11.70
17142;BMP180;32805;53.556;9.944;2022-09-29T14:30:14;100041.00;;;11.70
17142;BMP180;32805;53.556;9.944;2022-09-29T14:32:49;100039.00;;;11.80
17142;BMP180;32805;53.556;9.944;2022-09-29T14:35:26;100048.00;;;11.80
17142;BMP180;32805;53.556;9.944;2022-09-29T14:38:01;100042.00;;;11.90
17142;BMP180;32805;53.556;9.944;2022-09-29T14:40:30;100043.00;;;11.80
17142;BMP180;32805;53.556;9.944;2022-09-29T14:43:03;100039.00;;;11.70
17142;BMP180;32805;53.556;9.944;2022-09-29T14:45:40;100047.00;;;11.80
17142;BMP180;32805;53.556;9.944;2022-09-29T14:48:32;100049.00;;;11.80
17142;BMP180;32805;53.556;9.944;2022-09-29T14:51:27;100046.00;;;11.80
17142;BMP180;32805;53.556;9.944;2022-09-29T14:54:22;100050.00;;;11.80
17142;BMP180;32805;53.556;9.944;2022-09-29T14:57:01;100050.00;;;12.00
17142;BMP180;32805;53.556;9.944;2022-09-29T14:59:46;100053.00;;;12.00